sensor_id;sensor_type;location;lat;lon;timestamp;P1;durP1;ratioP1;P2;durP2;ratioP2
71490;SDS011;59307;50.060;9.150;2023-06-10T00:01:00;11.60;;;6.68;;
71490;SDS011;59307;50.060;9.150;2023-06-10T00:03:26;12.77;;;6.53;;
71490;SDS011;59307;50.060;9.150;2023-06-10T00:05:51;11.07;;;6.50;;
71490;SDS011;59307;50.060;9.150;2023-06-10T00:08:16;11.00;;;6.87;;
71490;SDS011;59307;50.060;9.150;2023-06-10T00:10:44;10.38;;;6.65;;
71490;SDS011;59307;50.060;9.150;2023-06-10T00:13:09;10.60;;;6.50;;
71490;SDS011;59307;50.060;9.150;2023-06-10T00:15:36;10.25;;;7.07;;
71490;SDS011;59307;50.060;9.150;2023-06-10T00:18:01;10.87;;;6.67;;
71490;SDS011;59307;50.060;9.150;2023-06-10T00:20:27;11.20;;;6.50;;
71490;SDS011;59307;50.060;9.150;2023-06-10T00:22:52;9.85;;;6.80;;
71490;SDS011;59307;50.060;9.150;2023-06-10T00:25:17;11.83;;;6.60;;
71490;SDS011;59307;50.060;9.150;2023-06-10T00:27:43;10.00;;;7.00;;
71490;SDS011;59307;50.060;9.150;2023-06-10T00:30:08;9.73;;;6.43;;
71490;SDS011;59307;50.060;9.150;2023-06-10T00:32:34;10.63;;;6.13;;
71490;SDS011;59307;50.060;9.150;2023-06-10T00:34:59;10.87;;;7.00;;
71490;SDS011;59307;50.060;9.150;2023-06-10T00:37:24;9.80;;;6.07;;
71490;SDS011;59307;50.060;9.150;2023-06-10T00:39:50;15.50;;;6.97;;
71490;SDS011;59307;50.060;9.150;2023-06-10T00:42:15;9.63;;;6.50;;
71490;SDS011;59307;50.060;9.150;2023-06-10T00:44:40;12.40;;;6.70;;
71490;SDS011;59307;50.060;9.150;2023-06-10T00:47:05;10.33;;;6.70;;
71490;SDS011;59307;50.060;9.150;2023-06-10T00:49:31;9.03;;;6.30;;
71490;SDS011;59307;50.060;9.150;2023-06-10T00:51:56;11.97;;;6.33;;
71490;SDS011;59307;50.060;9.150;2023-06-10T00:54:22;9.67;;;6.27;;
71490;SDS011;59307;50.060;9.150;2023-06-10T00:56:47;13.90;;;6.67;;
71490;SDS011;59307;50.060;9.150;2023-06-10T00:59:13;9.52;;;6.32;;
71490;SDS011;59307;50.060;9.150;2023-06-10T01:01:39;13.23;;;6.80;;
71490;SDS011;59307;50.060;9.150;2023-06-10T01:04:06;11.70;;;6.38;;
71490;SDS011;59307;50.060;9.150;2023-06-10T01:09:02;10.95;;;6.60;;
71490;SDS011;59307;50.060;9.150;2023-06-10T01:11:34;10.30;;;6.68;;
71490;SDS011;59307;50.060;9.150;2023-06-10T01:13:59;11.63;;;5.85;;
71490;SDS011;59307;50.060;9.150;2023-06-10T01:16:25;9.80;;;6.67;;
71490;SDS011;59307;50.060;9.150;2023-06-10T01:18:51;9.40;;;6.80;;
71490;SDS011;59307;50.060;9.150;2023-06-10T01:21:23;9.93;;;6.07;;
71490;SDS011;59307;50.060;9.150;2023-06-10T01:23:49;13.52;;;6.88;;
71490;SDS011;59307;50.060;9.150;2023-06-10T01:26:14;9.90;;;6.17;;
71490;SDS011;59307;50.060;9.150;2023-06-10T01:28:51;12.52;;;6.35;;
71490;SDS011;59307;50.060;9.150;2023-06-10T01:31:33;10.40;;;6.25;;
71490;SDS011;59307;50.060;9.150;2023-06-10T01:34:02;15.53;;;5.93;;
71490;SDS011;59307;50.060;9.150;2023-06-10T01:36:27;11.70;;;5.65;;
71490;SDS011;59307;50.060;9.150;2023-06-10T01:38:54;7.93;;;5.43;;
71490;SDS011;59307;50.060;9.150;2023-06-10T01:41:20;9.63;;;5.57;;
71490;SDS011;59307;50.060;9.150;2023-06-10T01:43:46;10.93;;;5.85;;
71490;SDS011;59307;50.060;9.150;2023-06-10T01:46:11;12.17;;;6.20;;
71490;SDS011;59307;50.060;9.150;2023-06-10T01:48:37;9.90;;;5.78;;
71490;SDS011;59307;50.060;9.150;2023-06-10T01:51:02;8.87;;;6.00;;
71490;SDS011;59307;50.060;9.150;2023-06-10T01:53:28;11.57;;;6.23;;
71490;SDS011;59307;50.060;9.150;2023-06-10T01:55:53;10.67;;;5.80;;
71490;SDS011;59307;50.060;9.150;2023-06-10T01:58:18;10.20;;;6.23;;
71490;SDS011;59307;50.060;9.150;2023-06-10T02:00:43;11.60;;;6.17;;
71490;SDS011;59307;50.060;9.150;2023-06-10T02:03:09;13.63;;;6.37;;
71490;SDS011;59307;50.060;9.150;2023-06-10T02:05:34;10.82;;;5.95;;
71490;SDS011;59307;50.060;9.150;2023-06-10T02:07:59;13.37;;;6.60;;
71490;SDS011;59307;50.060;9.150;2023-06-10T02:10:24;10.00;;;6.55;;
71490;SDS011;59307;50.060;9.150;2023-06-10T02:12:50;11.37;;;5.90;;
71490;SDS011;59307;50.060;9.150;2023-06-10T02:15:15;9.40;;;5.60;;
71490;SDS011;59307;50.060;9.150;2023-06-10T02:17:40;10.07;;;6.27;;
71490;SDS011;59307;50.060;9.150;2023-06-10T02:20:05;9.07;;;6.00;;
71490;SDS011;59307;50.060;9.150;2023-06-10T02:22:32;8.95;;;5.88;;
71490;SDS011;59307;50.060;9.150;2023-06-10T02:24:57;13.03;;;6.33;;
71490;SDS011;59307;50.060;9.150;2023-06-10T02:27:22;15.13;;;6.17;;
71490;SDS011;59307;50.060;9.150;2023-06-10T02:29:47;12.23;;;6.43;;
71490;SDS011;59307;50.060;9.150;2023-06-10T02:32:12;9.57;;;6.07;;
71490;SDS011;59307;50.060;9.150;2023-06-10T02:34:38;13.10;;;6.13;;
71490;SDS011;59307;50.060;9.150;2023-06-10T02:37:03;13.13;;;6.43;;
71490;SDS011;59307;50.060;9.150;2023-06-10T02:39:28;9.27;;;5.83;;
71490;SDS011;59307;50.060;9.150;2023-06-10T02:41:53;11.53;;;6.43;;
71490;SDS011;59307;50.060;9.150;2023-06-10T02:44:19;11.07;;;6.00;;
71490;SDS011;59307;50.060;9.150;2023-06-10T02:46:44;13.03;;;6.07;;
71490;SDS011;59307;50.060;9.150;2023-06-10T02:49:09;11.93;;;6.20;;
71490;SDS011;59307;50.060;9.150;2023-06-10T02:51:34;10.23;;;6.00;;
71490;SDS011;59307;50.060;9.150;2023-06-10T02:54:00;10.00;;;6.30;;
71490;SDS011;59307;50.060;9.150;2023-06-10T02:56:26;10.27;;;6.30;;
71490;SDS011;59307;50.060;9.150;2023-06-10T02:58:51;10.17;;;6.27;;
71490;SDS011;59307;50.060;9.150;2023-06-10T03:01:16;12.38;;;6.13;;
71490;SDS011;59307;50.060;9.150;2023-06-10T03:03:42;11.67;;;6.73;;
71490;SDS011;59307;50.060;9.150;2023-06-10T03:06:09;9.90;;;6.90;;
71490;SDS011;59307;50.060;9.150;2023-06-10T03:08:35;10.70;;;6.25;;
71490;SDS011;59307;50.060;9.150;2023-06-10T03:11:00;12.00;;;6.03;;
71490;SDS011;59307;50.060;9.150;2023-06-10T03:13:25;8.30;;;5.73;;
71490;SDS011;59307;50.060;9.150;2023-06-10T03:15:50;11.07;;;6.07;;
71490;SDS011;59307;50.060;9.150;2023-06-10T03:18:16;11.07;;;6.27;;
71490;SDS011;59307;50.060;9.150;2023-06-10T03:20:41;10.90;;;6.20;;
71490;SDS011;59307;50.060;9.150;2023-06-10T03:23:06;9.93;;;6.47;;
71490;SDS011;59307;50.060;9.150;2023-06-10T03:25:32;10.17;;;6.33;;
71490;SDS011;59307;50.060;9.150;2023-06-10T03:27:57;11.50;;;6.45;;
71490;SDS011;59307;50.060;9.150;2023-06-10T03:30:22;13.40;;;6.57;;
71490;SDS011;59307;50.060;9.150;2023-06-10T03:32:47;12.67;;;6.30;;
71490;SDS011;59307;50.060;9.150;2023-06-10T03:35:13;10.38;;;6.25;;
71490;SDS011;59307;50.060;9.150;2023-06-10T03:37:39;9.90;;;6.30;;
71490;SDS011;59307;50.060;9.150;2023-06-10T03:40:05;10.23;;;6.50;;
71490;SDS011;59307;50.060;9.150;2023-06-10T03:42:30;11.33;;;6.27;;
71490;SDS011;59307;50.060;9.150;2023-06-10T03:44:56;12.87;;;6.30;;
71490;SDS011;59307;50.060;9.150;2023-06-10T03:47:21;12.37;;;6.70;;
71490;SDS011;59307;50.060;9.150;2023-06-10T03:49:46;12.48;;;6.10;;
71490;SDS011;59307;50.060;9.150;2023-06-10T03:52:12;16.23;;;6.53;;
71490;SDS011;59307;50.060;9.150;2023-06-10T03:54:37;11.57;;;6.10;;
71490;SDS011;59307;50.060;9.150;2023-06-10T03:57:02;11.80;;;5.90;;
71490;SDS011;59307;50.060;9.150;2023-06-10T03:59:28;10.90;;;6.25;;
71490;SDS011;59307;50.060;9.150;2023-06-10T04:01:53;10.17;;;6.50;;
71490;SDS011;59307;50.060;9.150;2023-06-10T04:04:19;9.37;;;6.20;;
71490;SDS011;59307;50.060;9.150;2023-06-10T04:06:44;13.13;;;6.20;;
71490;SDS011;59307;50.060;9.150;2023-06-10T04:09:09;10.43;;;6.37;;
71490;SDS011;59307;50.060;9.150;2023-06-10T04:11:35;9.75;;;6.25;;
71490;SDS011;59307;50.060;9.150;2023-06-10T04:14:00;10.00;;;6.23;;
71490;SDS011;59307;50.060;9.150;2023-06-10T04:16:25;10.97;;;6.10;;
71490;SDS011;59307;50.060;9.150;2023-06-10T04:18:50;10.67;;;6.27;;
71490;SDS011;59307;50.060;9.150;2023-06-10T04:21:15;11.93;;;6.43;;
71490;SDS011;59307;50.060;9.150;2023-06-10T04:23:41;16.07;;;6.67;;
71490;SDS011;59307;50.060;9.150;2023-06-10T04:26:06;11.20;;;6.63;;
71490;SDS011;59307;50.060;9.150;2023-06-10T04:28:32;11.57;;;6.80;;
71490;SDS011;59307;50.060;9.150;2023-06-10T04:30:57;9.50;;;6.27;;
71490;SDS011;59307;50.060;9.150;2023-06-10T04:33:22;11.20;;;6.70;;
71490;SDS011;59307;50.060;9.150;2023-06-10T04:35:48;16.93;;;6.53;;
71490;SDS011;59307;50.060;9.150;2023-06-10T04:38:13;14.50;;;7.77;;
71490;SDS011;59307;50.060;9.150;2023-06-10T04:40:38;12.67;;;7.47;;
71490;SDS011;59307;50.060;9.150;2023-06-10T04:43:04;11.38;;;6.85;;
71490;SDS011;59307;50.060;9.150;2023-06-10T04:45:29;10.47;;;6.70;;
71490;SDS011;59307;50.060;9.150;2023-06-10T04:47:54;10.20;;;6.40;;
71490;SDS011;59307;50.060;9.150;2023-06-10T04:50:20;15.80;;;8.50;;
71490;SDS011;59307;50.060;9.150;2023-06-10T04:52:46;12.47;;;8.00;;
71490;SDS011;59307;50.060;9.150;2023-06-10T04:55:11;12.23;;;7.50;;
71490;SDS011;59307;50.060;9.150;2023-06-10T04:57:36;11.13;;;7.60;;
71490;SDS011;59307;50.060;9.150;2023-06-10T05:00:02;11.10;;;7.57;;
71490;SDS011;59307;50.060;9.150;2023-06-10T05:02:30;11.93;;;7.18;;
71490;SDS011;59307;50.060;9.150;2023-06-10T05:04:56;9.73;;;6.50;;
71490;SDS011;59307;50.060;9.150;2023-06-10T05:07:22;10.00;;;6.70;;
71490;SDS011;59307;50.060;9.150;2023-06-10T05:09:48;10.53;;;6.50;;
71490;SDS011;59307;50.060;9.150;2023-06-10T05:12:13;10.33;;;6.37;;
71490;SDS011;59307;50.060;9.150;2023-06-10T05:14:38;11.03;;;6.47;;
71490;SDS011;59307;50.060;9.150;2023-06-10T05:17:03;9.83;;;6.17;;
71490;SDS011;59307;50.060;9.150;2023-06-10T05:19:30;9.35;;;6.28;;
71490;SDS011;59307;50.060;9.150;2023-06-10T05:21:55;9.27;;;6.47;;
71490;SDS011;59307;50.060;9.150;2023-06-10T05:24:21;11.67;;;6.63;;
71490;SDS011;59307;50.060;9.150;2023-06-10T05:26:46;16.27;;;7.30;;
71490;SDS011;59307;50.060;9.150;2023-06-10T05:29:13;9.30;;;7.00;;
71490;SDS011;59307;50.060;9.150;2023-06-10T05:31:40;11.27;;;6.90;;
71490;SDS011;59307;50.060;9.150;2023-06-10T05:34:05;13.23;;;7.30;;
71490;SDS011;59307;50.060;9.150;2023-06-10T05:36:30;11.77;;;6.47;;
71490;SDS011;59307;50.060;9.150;2023-06-10T05:38:55;10.23;;;6.73;;
71490;SDS011;59307;50.060;9.150;2023-06-10T05:41:21;11.50;;;6.93;;
71490;SDS011;59307;50.060;9.150;2023-06-10T05:43:47;13.70;;;7.22;;
71490;SDS011;59307;50.060;9.150;2023-06-10T05:46:12;12.73;;;8.77;;
71490;SDS011;59307;50.060;9.150;2023-06-10T05:48:37;16.90;;;11.75;;
71490;SDS011;59307;50.060;9.150;2023-06-10T05:51:03;16.47;;;9.97;;
71490;SDS011;59307;50.060;9.150;2023-06-10T05:53:28;12.20;;;8.30;;
71490;SDS011;59307;50.060;9.150;2023-06-10T05:55:53;13.20;;;7.87;;
71490;SDS011;59307;50.060;9.150;2023-06-10T05:58:22;10.63;;;6.38;;
71490;SDS011;59307;50.060;9.150;2023-06-10T06:00:47;9.00;;;6.37;;
71490;SDS011;59307;50.060;9.150;2023-06-10T06:03:12;8.67;;;6.20;;
71490;SDS011;59307;50.060;9.150;2023-06-10T06:05:38;10.00;;;6.23;;
71490;SDS011;59307;50.060;9.150;2023-06-10T06:08:06;10.17;;;6.23;;
71490;SDS011;59307;50.060;9.150;2023-06-10T06:10:32;8.98;;;6.28;;
71490;SDS011;59307;50.060;9.150;2023-06-10T06:12:57;8.10;;;6.03;;
71490;SDS011;59307;50.060;9.150;2023-06-10T06:15:23;7.35;;;5.90;;
71490;SDS011;59307;50.060;9.150;2023-06-10T06:17:48;10.60;;;6.20;;
71490;SDS011;59307;50.060;9.150;2023-06-10T06:20:13;10.13;;;6.50;;
71490;SDS011;59307;50.060;9.150;2023-06-10T06:22:38;11.73;;;7.03;;
71490;SDS011;59307;50.060;9.150;2023-06-10T06:25:04;9.53;;;6.63;;
71490;SDS011;59307;50.060;9.150;2023-06-10T06:27:29;9.67;;;6.30;;
71490;SDS011;59307;50.060;9.150;2023-06-10T06:29:54;10.27;;;6.03;;
71490;SDS011;59307;50.060;9.150;2023-06-10T06:32:20;9.47;;;6.47;;
71490;SDS011;59307;50.060;9.150;2023-06-10T06:34:47;10.70;;;6.35;;
71490;SDS011;59307;50.060;9.150;2023-06-10T06:37:14;10.50;;;6.68;;
71490;SDS011;59307;50.060;9.150;2023-06-10T06:39:39;11.20;;;6.63;;
71490;SDS011;59307;50.060;9.150;2023-06-10T06:42:04;8.73;;;6.43;;
71490;SDS011;59307;50.060;9.150;2023-06-10T06:44:30;8.15;;;6.35;;
71490;SDS011;59307;50.060;9.150;2023-06-10T06:46:55;9.23;;;6.43;;
71490;SDS011;59307;50.060;9.150;2023-06-10T06:49:20;10.07;;;6.30;;
71490;SDS011;59307;50.060;9.150;2023-06-10T06:51:46;10.30;;;6.30;;
71490;SDS011;59307;50.060;9.150;2023-06-10T06:54:11;9.43;;;6.30;;
71490;SDS011;59307;50.060;9.150;2023-06-10T06:56:37;9.63;;;6.83;;
71490;SDS011;59307;50.060;9.150;2023-06-10T06:59:03;9.23;;;6.70;;
71490;SDS011;59307;50.060;9.150;2023-06-10T07:01:29;9.50;;;6.55;;
71490;SDS011;59307;50.060;9.150;2023-06-10T07:03:54;8.50;;;6.50;;
71490;SDS011;59307;50.060;9.150;2023-06-10T07:06:19;9.27;;;6.63;;
71490;SDS011;59307;50.060;9.150;2023-06-10T07:08:45;11.10;;;6.53;;
71490;SDS011;59307;50.060;9.150;2023-06-10T07:11:10;8.43;;;6.00;;
71490;SDS011;59307;50.060;9.150;2023-06-10T07:13:35;10.67;;;6.73;;
71490;SDS011;59307;50.060;9.150;2023-06-10T07:16:00;9.03;;;6.87;;
71490;SDS011;59307;50.060;9.150;2023-06-10T07:18:25;8.93;;;6.20;;
71490;SDS011;59307;50.060;9.150;2023-06-10T07:20:51;9.17;;;6.83;;
71490;SDS011;59307;50.060;9.150;2023-06-10T07:23:16;9.67;;;6.43;;
71490;SDS011;59307;50.060;9.150;2023-06-10T07:25:41;12.00;;;6.67;;
71490;SDS011;59307;50.060;9.150;2023-06-10T07:28:06;8.60;;;6.60;;
71490;SDS011;59307;50.060;9.150;2023-06-10T07:30:32;9.97;;;6.50;;
71490;SDS011;59307;50.060;9.150;2023-06-10T07:32:57;11.27;;;6.90;;
71490;SDS011;59307;50.060;9.150;2023-06-10T07:35:22;9.97;;;6.07;;
71490;SDS011;59307;50.060;9.150;2023-06-10T07:37:47;9.02;;;6.45;;
71490;SDS011;59307;50.060;9.150;2023-06-10T07:40:12;7.47;;;6.07;;
71490;SDS011;59307;50.060;9.150;2023-06-10T07:42:38;9.10;;;6.40;;
71490;SDS011;59307;50.060;9.150;2023-06-10T07:45:03;10.07;;;6.33;;
71490;SDS011;59307;50.060;9.150;2023-06-10T07:47:29;10.90;;;7.37;;
71490;SDS011;59307;50.060;9.150;2023-06-10T07:49:54;10.23;;;6.88;;
71490;SDS011;59307;50.060;9.150;2023-06-10T07:52:19;9.53;;;5.90;;
71490;SDS011;59307;50.060;9.150;2023-06-10T07:54:45;8.67;;;5.80;;
71490;SDS011;59307;50.060;9.150;2023-06-10T07:57:10;8.33;;;5.70;;
71490;SDS011;59307;50.060;9.150;2023-06-10T07:59:35;8.93;;;6.27;;
71490;SDS011;59307;50.060;9.150;2023-06-10T08:02:00;9.83;;;5.70;;
71490;SDS011;59307;50.060;9.150;2023-06-10T08:04:25;7.53;;;5.40;;
71490;SDS011;59307;50.060;9.150;2023-06-10T08:06:51;8.20;;;5.90;;
71490;SDS011;59307;50.060;9.150;2023-06-10T08:09:16;7.87;;;5.30;;
71490;SDS011;59307;50.060;9.150;2023-06-10T08:11:41;8.67;;;5.40;;
71490;SDS011;59307;50.060;9.150;2023-06-10T08:14:06;7.70;;;4.60;;
71490;SDS011;59307;50.060;9.150;2023-06-10T08:16:31;12.00;;;5.00;;
71490;SDS011;59307;50.060;9.150;2023-06-10T08:18:57;7.53;;;5.10;;
71490;SDS011;59307;50.060;9.150;2023-06-10T08:21:22;13.30;;;5.87;;
71490;SDS011;59307;50.060;9.150;2023-06-10T08:23:47;12.60;;;6.43;;
71490;SDS011;59307;50.060;9.150;2023-06-10T08:26:12;8.80;;;5.60;;
71490;SDS011;59307;50.060;9.150;2023-06-10T08:28:37;8.07;;;4.77;;
71490;SDS011;59307;50.060;9.150;2023-06-10T08:31:02;7.57;;;4.70;;
71490;SDS011;59307;50.060;9.150;2023-06-10T08:33:28;6.50;;;4.50;;
71490;SDS011;59307;50.060;9.150;2023-06-10T08:35:53;6.83;;;4.90;;
71490;SDS011;59307;50.060;9.150;2023-06-10T08:38:18;6.37;;;4.30;;
71490;SDS011;59307;50.060;9.150;2023-06-10T08:40:43;6.67;;;4.70;;
71490;SDS011;59307;50.060;9.150;2023-06-10T08:43:17;9.23;;;4.90;;
71490;SDS011;59307;50.060;9.150;2023-06-10T08:45:46;8.30;;;5.13;;
71490;SDS011;59307;50.060;9.150;2023-06-10T08:48:12;9.93;;;4.82;;
71490;SDS011;59307;50.060;9.150;2023-06-10T08:50:39;7.95;;;4.75;;
71490;SDS011;59307;50.060;9.150;2023-06-10T08:53:06;8.07;;;4.68;;
71490;SDS011;59307;50.060;9.150;2023-06-10T08:57:57;8.63;;;4.43;;
71490;SDS011;59307;50.060;9.150;2023-06-10T09:00:23;6.53;;;4.45;;
71490;SDS011;59307;50.060;9.150;2023-06-10T09:02:48;9.10;;;5.30;;
71490;SDS011;59307;50.060;9.150;2023-06-10T09:05:13;8.97;;;4.90;;
71490;SDS011;59307;50.060;9.150;2023-06-10T09:07:39;7.95;;;4.57;;
71490;SDS011;59307;50.060;9.150;2023-06-10T09:10:04;6.77;;;4.50;;
71490;SDS011;59307;50.060;9.150;2023-06-10T09:12:32;7.18;;;4.32;;
71490;SDS011;59307;50.060;9.150;2023-06-10T09:14:57;8.23;;;4.40;;
71490;SDS011;59307;50.060;9.150;2023-06-10T09:17:22;6.07;;;4.40;;
71490;SDS011;59307;50.060;9.150;2023-06-10T09:19:47;7.33;;;4.37;;
71490;SDS011;59307;50.060;9.150;2023-06-10T09:22:12;8.80;;;4.80;;
71490;SDS011;59307;50.060;9.150;2023-06-10T09:24:38;7.50;;;4.70;;
71490;SDS011;59307;50.060;9.150;2023-06-10T09:27:04;6.70;;;4.50;;
71490;SDS011;59307;50.060;9.150;2023-06-10T09:29:31;8.13;;;4.72;;
71490;SDS011;59307;50.060;9.150;2023-06-10T09:31:56;7.40;;;4.30;;
71490;SDS011;59307;50.060;9.150;2023-06-10T09:34:24;9.47;;;4.30;;
71490;SDS011;59307;50.060;9.150;2023-06-10T09:36:49;5.47;;;4.40;;
71490;SDS011;59307;50.060;9.150;2023-06-10T09:39:16;5.57;;;4.40;;
71490;SDS011;59307;50.060;9.150;2023-06-10T09:41:41;6.80;;;4.32;;
71490;SDS011;59307;50.060;9.150;2023-06-10T09:44:16;7.93;;;4.20;;
71490;SDS011;59307;50.060;9.150;2023-06-10T09:46:41;10.77;;;4.55;;
71490;SDS011;59307;50.060;9.150;2023-06-10T09:49:07;5.83;;;4.23;;
71490;SDS011;59307;50.060;9.150;2023-06-10T09:51:32;6.28;;;4.07;;
71490;SDS011;59307;50.060;9.150;2023-06-10T09:53:57;6.73;;;3.90;;
71490;SDS011;59307;50.060;9.150;2023-06-10T09:56:32;7.03;;;4.20;;
71490;SDS011;59307;50.060;9.150;2023-06-10T09:58:57;6.37;;;3.50;;
71490;SDS011;59307;50.060;9.150;2023-06-10T10:01:22;6.93;;;3.57;;
71490;SDS011;59307;50.060;9.150;2023-06-10T10:03:49;4.47;;;3.15;;
71490;SDS011;59307;50.060;9.150;2023-06-10T10:06:15;5.03;;;3.25;;
71490;SDS011;59307;50.060;9.150;2023-06-10T10:08:41;7.22;;;3.33;;
71490;SDS011;59307;50.060;9.150;2023-06-10T10:11:06;4.23;;;3.00;;
71490;SDS011;59307;50.060;9.150;2023-06-10T10:13:34;5.53;;;3.73;;
71490;SDS011;59307;50.060;9.150;2023-06-10T10:16:01;8.68;;;3.90;;
71490;SDS011;59307;50.060;9.150;2023-06-10T10:18:29;6.82;;;3.13;;
71490;SDS011;59307;50.060;9.150;2023-06-10T10:20:55;5.38;;;3.88;;
71490;SDS011;59307;50.060;9.150;2023-06-10T10:23:24;5.40;;;3.50;;
71490;SDS011;59307;50.060;9.150;2023-06-10T10:25:51;6.45;;;3.50;;
71490;SDS011;59307;50.060;9.150;2023-06-10T10:28:17;5.35;;;3.60;;
71490;SDS011;59307;50.060;9.150;2023-06-10T10:30:46;5.27;;;3.43;;
71490;SDS011;59307;50.060;9.150;2023-06-10T10:35:55;6.72;;;3.28;;
71490;SDS011;59307;50.060;9.150;2023-06-10T10:38:21;5.80;;;3.40;;
71490;SDS011;59307;50.060;9.150;2023-06-10T10:40:46;6.15;;;3.50;;
71490;SDS011;59307;50.060;9.150;2023-06-10T10:43:12;5.43;;;3.50;;
71490;SDS011;59307;50.060;9.150;2023-06-10T10:45:38;5.45;;;3.67;;
71490;SDS011;59307;50.060;9.150;2023-06-10T10:48:05;6.07;;;3.57;;
71490;SDS011;59307;50.060;9.150;2023-06-10T10:50:34;7.15;;;4.00;;
71490;SDS011;59307;50.060;9.150;2023-06-10T10:53:01;6.23;;;3.70;;
71490;SDS011;59307;50.060;9.150;2023-06-10T10:55:27;8.30;;;3.65;;
71490;SDS011;59307;50.060;9.150;2023-06-10T11:00:37;3.95;;;3.15;;
71490;SDS011;59307;50.060;9.150;2023-06-10T11:05:44;5.75;;;3.85;;
71490;SDS011;59307;50.060;9.150;2023-06-10T11:08:12;6.65;;;3.75;;
71490;SDS011;59307;50.060;9.150;2023-06-10T11:10:38;5.10;;;3.30;;
71490;SDS011;59307;50.060;9.150;2023-06-10T11:13:14;6.00;;;3.60;;
71490;SDS011;59307;50.060;9.150;2023-06-10T11:15:49;6.82;;;3.95;;
71490;SDS011;59307;50.060;9.150;2023-06-10T11:18:24;9.55;;;3.92;;
71490;SDS011;59307;50.060;9.150;2023-06-10T11:28:37;5.70;;;3.58;;
71490;SDS011;59307;50.060;9.150;2023-06-10T11:31:02;6.30;;;4.20;;
71490;SDS011;59307;50.060;9.150;2023-06-10T11:33:28;6.83;;;3.77;;
71490;SDS011;59307;50.060;9.150;2023-06-10T11:35:53;6.75;;;3.88;;
71490;SDS011;59307;50.060;9.150;2023-06-10T11:38:18;5.50;;;3.63;;
71490;SDS011;59307;50.060;9.150;2023-06-10T11:40:50;6.17;;;4.20;;
71490;SDS011;59307;50.060;9.150;2023-06-10T11:43:19;7.28;;;4.35;;
71490;SDS011;59307;50.060;9.150;2023-06-10T11:45:44;6.55;;;4.35;;
71490;SDS011;59307;50.060;9.150;2023-06-10T11:48:09;5.93;;;3.67;;
71490;SDS011;59307;50.060;9.150;2023-06-10T11:50:35;8.27;;;4.00;;
71490;SDS011;59307;50.060;9.150;2023-06-10T11:53:01;7.07;;;4.30;;
71490;SDS011;59307;50.060;9.150;2023-06-10T11:55:42;7.30;;;4.63;;
71490;SDS011;59307;50.060;9.150;2023-06-10T11:58:14;7.88;;;4.20;;
71490;SDS011;59307;50.060;9.150;2023-06-10T12:00:44;6.37;;;4.27;;
71490;SDS011;59307;50.060;9.150;2023-06-10T12:03:09;9.88;;;4.82;;
71490;SDS011;59307;50.060;9.150;2023-06-10T12:05:34;7.67;;;4.80;;
71490;SDS011;59307;50.060;9.150;2023-06-10T12:08:12;11.03;;;4.70;;
71490;SDS011;59307;50.060;9.150;2023-06-10T12:10:41;7.93;;;4.22;;
71490;SDS011;59307;50.060;9.150;2023-06-10T12:13:06;9.02;;;4.45;;
71490;SDS011;59307;50.060;9.150;2023-06-10T12:15:32;8.30;;;4.10;;
71490;SDS011;59307;50.060;9.150;2023-06-10T12:17:58;6.77;;;3.87;;
71490;SDS011;59307;50.060;9.150;2023-06-10T12:20:29;6.43;;;4.00;;
71490;SDS011;59307;50.060;9.150;2023-06-10T12:22:55;6.50;;;3.97;;
71490;SDS011;59307;50.060;9.150;2023-06-10T12:25:29;8.10;;;3.77;;
71490;SDS011;59307;50.060;9.150;2023-06-10T12:27:56;6.70;;;3.60;;
71490;SDS011;59307;50.060;9.150;2023-06-10T12:30:23;6.05;;;3.97;;
71490;SDS011;59307;50.060;9.150;2023-06-10T12:32:49;6.78;;;3.60;;
71490;SDS011;59307;50.060;9.150;2023-06-10T12:35:33;5.78;;;4.20;;
71490;SDS011;59307;50.060;9.150;2023-06-10T12:38:00;7.45;;;4.47;;
71490;SDS011;59307;50.060;9.150;2023-06-10T12:40:29;7.53;;;4.40;;
71490;SDS011;59307;50.060;9.150;2023-06-10T12:42:56;7.30;;;3.83;;
71490;SDS011;59307;50.060;9.150;2023-06-10T12:45:34;7.00;;;4.13;;
71490;SDS011;59307;50.060;9.150;2023-06-10T12:48:16;7.43;;;4.70;;
71490;SDS011;59307;50.060;9.150;2023-06-10T12:50:42;7.00;;;4.18;;
71490;SDS011;59307;50.060;9.150;2023-06-10T12:53:07;5.57;;;4.13;;
71490;SDS011;59307;50.060;9.150;2023-06-10T12:55:32;6.13;;;4.20;;
71490;SDS011;59307;50.060;9.150;2023-06-10T12:57:58;6.83;;;4.60;;
71490;SDS011;59307;50.060;9.150;2023-06-10T13:00:23;6.22;;;4.20;;
71490;SDS011;59307;50.060;9.150;2023-06-10T13:02:51;6.43;;;3.97;;
71490;SDS011;59307;50.060;9.150;2023-06-10T13:05:17;5.63;;;3.83;;
71490;SDS011;59307;50.060;9.150;2023-06-10T13:07:43;5.88;;;4.32;;
71490;SDS011;59307;50.060;9.150;2023-06-10T13:10:08;7.07;;;4.03;;
71490;SDS011;59307;50.060;9.150;2023-06-10T13:12:33;6.37;;;3.90;;
71490;SDS011;59307;50.060;9.150;2023-06-10T13:14:58;7.10;;;4.40;;
71490;SDS011;59307;50.060;9.150;2023-06-10T13:17:24;7.93;;;4.80;;
71490;SDS011;59307;50.060;9.150;2023-06-10T13:19:49;5.83;;;4.10;;
71490;SDS011;59307;50.060;9.150;2023-06-10T13:22:14;7.20;;;4.07;;
71490;SDS011;59307;50.060;9.150;2023-06-10T13:24:40;6.43;;;4.18;;
71490;SDS011;59307;50.060;9.150;2023-06-10T13:27:06;5.73;;;3.73;;
71490;SDS011;59307;50.060;9.150;2023-06-10T13:29:31;6.10;;;4.27;;
71490;SDS011;59307;50.060;9.150;2023-06-10T13:31:56;5.50;;;3.67;;
71490;SDS011;59307;50.060;9.150;2023-06-10T13:34:21;6.47;;;4.13;;
71490;SDS011;59307;50.060;9.150;2023-06-10T13:36:47;6.00;;;3.70;;
71490;SDS011;59307;50.060;9.150;2023-06-10T13:39:12;6.77;;;3.60;;
71490;SDS011;59307;50.060;9.150;2023-06-10T13:41:38;5.87;;;3.47;;
71490;SDS011;59307;50.060;9.150;2023-06-10T13:44:04;6.63;;;3.50;;
71490;SDS011;59307;50.060;9.150;2023-06-10T13:46:30;5.40;;;3.67;;
71490;SDS011;59307;50.060;9.150;2023-06-10T13:48:55;5.27;;;3.73;;
71490;SDS011;59307;50.060;9.150;2023-06-10T13:51:20;4.90;;;3.47;;
71490;SDS011;59307;50.060;9.150;2023-06-10T13:53:45;5.47;;;3.83;;
71490;SDS011;59307;50.060;9.150;2023-06-10T13:56:11;6.57;;;3.80;;
71490;SDS011;59307;50.060;9.150;2023-06-10T13:58:36;7.60;;;3.77;;
71490;SDS011;59307;50.060;9.150;2023-06-10T14:01:04;7.18;;;4.28;;
71490;SDS011;59307;50.060;9.150;2023-06-10T14:03:29;5.13;;;3.77;;
71490;SDS011;59307;50.060;9.150;2023-06-10T14:05:54;6.67;;;4.07;;
71490;SDS011;59307;50.060;9.150;2023-06-10T14:08:19;11.13;;;4.03;;
71490;SDS011;59307;50.060;9.150;2023-06-10T14:10:45;9.88;;;4.05;;
71490;SDS011;59307;50.060;9.150;2023-06-10T14:13:10;5.40;;;3.70;;
71490;SDS011;59307;50.060;9.150;2023-06-10T14:15:36;6.80;;;3.60;;
71490;SDS011;59307;50.060;9.150;2023-06-10T14:18:01;4.90;;;3.23;;
71490;SDS011;59307;50.060;9.150;2023-06-10T14:20:26;6.43;;;3.60;;
71490;SDS011;59307;50.060;9.150;2023-06-10T14:22:56;6.65;;;3.97;;
71490;SDS011;59307;50.060;9.150;2023-06-10T14:25:21;6.80;;;3.90;;
71490;SDS011;59307;50.060;9.150;2023-06-10T14:27:46;6.57;;;3.90;;
71490;SDS011;59307;50.060;9.150;2023-06-10T14:30:12;6.10;;;3.67;;
71490;SDS011;59307;50.060;9.150;2023-06-10T14:32:37;10.90;;;3.75;;
71490;SDS011;59307;50.060;9.150;2023-06-10T14:35:02;7.70;;;3.77;;
71490;SDS011;59307;50.060;9.150;2023-06-10T14:37:27;6.27;;;3.53;;
71490;SDS011;59307;50.060;9.150;2023-06-10T14:39:53;6.43;;;3.47;;
71490;SDS011;59307;50.060;9.150;2023-06-10T14:42:18;7.70;;;4.17;;
71490;SDS011;59307;50.060;9.150;2023-06-10T14:44:43;4.67;;;3.63;;
71490;SDS011;59307;50.060;9.150;2023-06-10T14:47:08;6.47;;;4.07;;
71490;SDS011;59307;50.060;9.150;2023-06-10T14:49:33;7.77;;;3.90;;
71490;SDS011;59307;50.060;9.150;2023-06-10T14:51:59;8.53;;;4.10;;
71490;SDS011;59307;50.060;9.150;2023-06-10T14:54:24;8.27;;;3.80;;
71490;SDS011;59307;50.060;9.150;2023-06-10T14:56:49;5.17;;;3.40;;